x

Central Gulf Of Alaska - 265nm West Of Cape Ommaney, Akk (46085) Wave Buoy

2:50am - Mon 8th Feb 2016 All times are UTC.

  • Sig Wave height 22.0ft
  • Peak Period 11s
  • Average Period 9s
  • Wind
    27mph, 36mph gusts
  • Sea Temp 44°f
  • Air Temp 44°f
  • Sea Pressure 1008.5mb

More Historic Weather Station data

Upgrade to MSW Pro to gain access to the past 30 days of data for over 8000 Wavebouys and Weather Stations around the globe.

Join Pro

Comparision Forecast

View Surf forecast
   
Mon 02/08 2:50am 22ft 11s 9s 27 36 mph 1008.5mb 44f 44f
1:50am 21ft 11s 9s 27 36 mph 1007.8mb 44f 44f
12:50am 20ft 11s 8s 27 36 mph 1006.8mb 44f 45f
Sun 02/07 11:50pm 19ft 11s 8s 29 40 mph 1006.6mb 44f 41f
10:50pm 17.5ft 11s 8s 29 38 mph 1005.3mb 44f 45f
9:50pm 15ft 11s 7s 29 36 mph 1004.5mb 44f 45f
8:50pm 14ft 11s 7s 29 36 mph 1004.1mb 44f 45f
7:50pm 15.5ft 11s 8s 27 31 mph 1003.3mb 44f 45f
6:50pm 14ft 11s 8s 20 27 mph 1002.8mb 44f 44f
5:50pm 14.5ft 11s 8s 22 29 mph 1001.9mb 44f 44f
4:50pm 15.5ft 11s 8s 25 29 mph 1001mb 44f 44f
3:50pm 15ft 10s 8s 20 25 mph 1000.2mb 44f 44f
2:50pm 17.5ft 11s 8s 20 25 mph 999.7mb 44f 44f
1:50pm 17.5ft 11s 8s 20 25 mph 999.1mb 44f 44f
12:50pm 19.5ft 11s 8s 18 22 mph 998.5mb 44f 44f
11:50am 21.5ft 11s 8s 20 27 mph 997.7mb 44f 44f
10:50am 19.5ft 10s 8s 34 45 mph 998.1mb 44f 42f
9:50am 16.5ft 10s 7s 36 47 mph 999.1mb 44f 41f
8:50am 16.5ft 9s 7s 40 54 mph 1000.5mb 44f 40f
7:50am 16ft 8s 7s 38 47 mph 1002.5mb 44f 40f
6:50am 14ft 8s 7s 38 49 mph 1004.6mb 44f 40f
5:50am 13ft 11s 7s 38 47 mph 1006.4mb 44f 42f
4:50am 12ft 11s 6s 36 43 mph 1007.9mb 44f 43f
3:50am 13.5ft 12s 7s 36 43 mph 1009.3mb 44f 42f
2:50am 13ft 12s 7s 31 40 mph 1010.7mb 44f 42f
1:50am 13.5ft 13s 8s 29 38 mph 1012mb 44f 42f
12:50am 13.5ft 13s 8s 25 29 mph 1012.9mb 44f 42f
Sat 02/06 11:50pm 14.5ft 13s 9s 25 31 mph 1013.8mb 44f 42f
10:50pm 13ft 13s 8s 22 29 mph 1014mb 44f 42f
9:50pm 13ft 11s 8s 18 22 mph 1014.5mb 44f 42f
8:50pm 11.5ft 11s 8s 16 18 mph 1015.1mb 44f 42f
7:50pm 12ft 11s 8s 16 18 mph 1014.9mb 44f 41f
6:50pm 12.5ft 13s 8s 13 16 mph 1014.5mb 44f 42f
5:50pm 13.5ft 12s 8s 13 18 mph 1013.8mb 44f 42f
4:50pm 13ft 11s 8s 16 18 mph 1012.9mb 44f 42f
3:50pm 14.5ft 12s 8s 18 20 mph 1012.3mb 44f 42f
2:50pm 14.5ft 11s 9s 18 22 mph 1011.6mb 44f 42f
1:50pm 13.5ft 12s 8s 18 22 mph 1011.2mb 44f 41f
12:50pm 15.5ft 12s 8s 20 25 mph 1010.5mb 44f 41f
11:50am 14ft 12s 8s 18 22 mph 1009.9mb 44f 41f
10:50am 14ft 11s 8s 20 25 mph 1008.8mb 44f 42f
9:50am 12.5ft 11s 8s 20 25 mph 1007.7mb 44f 42f
8:50am 13ft 11s 8s 20 25 mph 1006.6mb 44f 41f
7:50am 14.5ft 12s 8s 16 22 mph 1005.8mb 44f 40f
6:50am 13.5ft 11s 8s 18 22 mph 1004.8mb 44f 41f
5:50am 12.5ft 12s 8s 18 31 mph 1003.9mb 44f 39f
4:50am 14ft 11s 8s 9 13 mph 1002.9mb 44f 40f
3:50am 13ft 11s 8s 25 29 mph 1002mb 44f 39f
2:50am 12.5ft 13s 8s 13 18 mph 1001.4mb 44f 37f
1:50am 13.5ft 13s 8s 22 27 mph 1000.5mb 44f 36f
12:50am 13ft 11s 8s 22 27 mph 999.4mb 44f 39f
Fri 02/05 11:50pm 13ft 12s 8s 20 27 mph 998.5mb 44f 41f
10:50pm 14ft 12s 8s 20 25 mph 998.1mb 44f 42f
9:50pm 14ft 11s 8s 20 25 mph 997.7mb 44f 42f
8:50pm 14ft 11s 8s 18 22 mph 997.3mb 44f 42f
7:50pm 13.5ft 12s 8s 18 20 mph 997mb 44f 42f
6:50pm 14ft 12s 8s 16 20 mph 996.5mb 44f 41f
5:50pm 13ft 11s 8s 13 20 mph 995.8mb 44f 41f
4:50pm 12.5ft 12s 7s 20 25 mph 995.2mb 44f 42f
3:50pm 14ft 12s 8s 20 25 mph 994.8mb 44f 42f
2:50pm 13ft 12s 8s 20 25 mph 994.5mb 44f 42f
1:50pm 14ft 12s 8s 20 25 mph 994.2mb 44f 42f
12:50pm 14ft 11s 8s 20 27 mph 993.7mb 44f 42f
11:50am 15ft 12s 8s 20 25 mph 993.6mb 44f 41f
10:50am 15ft 13s 8s 18 25 mph 993mb 44f 41f
9:50am 15ft 11s 8s 18 22 mph 992.4mb 44f 41f
8:50am 15ft 11s 8s 18 25 mph 991.7mb 44f 41f
7:50am 14.5ft 12s 7s 22 27 mph 991mb 44f 41f
6:50am 15.5ft 11s 8s 18 22 mph 990.8mb 44f 41f
5:50am 16.5ft 11s 8s 18 22 mph 990.5mb 44f 41f
4:50am 16.5ft 11s 8s 22 38 mph 990.1mb 44f 41f
3:50am 16ft 10s 7s 25 29 mph 989.5mb 44f 43f
2:50am 15.5ft 10s 7s 25 34 mph 988.8mb 44f 43f
1:50am 15.5ft 11s 7s 27 34 mph 988mb 44f 42f
12:50am 16.5ft 11s 7s 29 36 mph 987.2mb 44f 42f
Thu 02/04 11:50pm 16.5ft 11s 7s 27 34 mph 986.2mb 44f 43f
10:50pm 17.5ft 11s 8s 29 38 mph 985.2mb 44f 43f
9:50pm 17.5ft 11s 8s 29 38 mph 984.5mb 44f 43f
8:50pm 19ft 11s 8s 29 36 mph 983.6mb 44f 43f
7:50pm 19.5ft 11s 8s 31 40 mph 982.2mb 44f 43f
6:50pm 19ft 11s 8s 29 36 mph 981mb 44f 42f
5:50pm 19ft 11s 8s 34 43 mph 980mb 44f 43f
4:50pm 21.5ft 10s 8s 29 36 mph 979mb 44f 41f
3:50pm  -   -   -  38 47 mph 977.3mb 44f 43f
2:50pm 18.5ft 11s 8s 36 49 mph 975.4mb 44f 42f
1:50pm 19ft 14s 8s 34 43 mph 974.1mb 44f 44f
12:50pm 19.5ft 10s 8s 36 43 mph 973.8mb 44f 44f
11:50am 19.5ft 10s 8s 34 40 mph 974.3mb 44f 44f
10:50am 20ft 9s 8s 38 49 mph 976.3mb 44f 43f
9:50am 17.5ft 10s 7s 40 51 mph 978.7mb 44f 42f
8:50am 17ft 16s 8s 34 40 mph 981.2mb 44f 42f
7:50am 16ft 11s 8s 29 40 mph 983.5mb 44f 42f
6:50am 15.5ft 10s 8s 29 36 mph 985mb 44f 42f
5:50am 17.5ft 11s 9s 25 29 mph 986.2mb 44f 43f
4:50am 15.5ft 11s 8s 25 29 mph 986.9mb 44f 43f